sensor_id;sensor_type;location;lat;lon;timestamp;temperature;humidity
22212;DHT22;11275;52.488;13.462;2023-03-14T00:00:57;13.60;99.90
22212;DHT22;11275;52.488;13.462;2023-03-14T00:03:22;13.60;99.90
22212;DHT22;11275;52.488;13.462;2023-03-14T00:05:48;13.60;99.90
22212;DHT22;11275;52.488;13.462;2023-03-14T00:08:13;13.60;99.90
22212;DHT22;11275;52.488;13.462;2023-03-14T00:10:39;13.50;99.90
22212;DHT22;11275;52.488;13.462;2023-03-14T00:13:07;13.60;99.90
22212;DHT22;11275;52.488;13.462;2023-03-14T00:15:33;13.60;99.90
22212;DHT22;11275;52.488;13.462;2023-03-14T00:17:59;13.50;99.90
22212;DHT22;11275;52.488;13.462;2023-03-14T00:20:25;13.50;99.90
22212;DHT22;11275;52.488;13.462;2023-03-14T00:22:50;13.40;99.90
22212;DHT22;11275;52.488;13.462;2023-03-14T00:25:16;13.40;99.90
22212;DHT22;11275;52.488;13.462;2023-03-14T00:27:42;13.40;99.90
22212;DHT22;11275;52.488;13.462;2023-03-14T00:30:07;13.40;99.90
22212;DHT22;11275;52.488;13.462;2023-03-14T00:32:33;13.30;99.90
22212;DHT22;11275;52.488;13.462;2023-03-14T00:34:58;13.30;99.90
22212;DHT22;11275;52.488;13.462;2023-03-14T00:37:26;13.30;99.90
22212;DHT22;11275;52.488;13.462;2023-03-14T00:39:52;13.30;99.90
22212;DHT22;11275;52.488;13.462;2023-03-14T00:42:17;13.40;99.90
22212;DHT22;11275;52.488;13.462;2023-03-14T00:44:43;13.40;99.90
22212;DHT22;11275;52.488;13.462;2023-03-14T00:47:08;13.40;99.90
22212;DHT22;11275;52.488;13.462;2023-03-14T00:49:34;13.30;99.90
22212;DHT22;11275;52.488;13.462;2023-03-14T00:51:59;13.30;99.90
22212;DHT22;11275;52.488;13.462;2023-03-14T00:54:34;13.20;99.90
22212;DHT22;11275;52.488;13.462;2023-03-14T00:56:59;13.30;99.90
22212;DHT22;11275;52.488;13.462;2023-03-14T00:59:25;13.30;99.90
22212;DHT22;11275;52.488;13.462;2023-03-14T01:01:51;13.30;99.90
22212;DHT22;11275;52.488;13.462;2023-03-14T01:04:16;13.30;99.90
22212;DHT22;11275;52.488;13.462;2023-03-14T01:06:42;13.30;99.90
22212;DHT22;11275;52.488;13.462;2023-03-14T01:09:07;13.30;99.90
22212;DHT22;11275;52.488;13.462;2023-03-14T01:11:33;13.20;99.90
22212;DHT22;11275;52.488;13.462;2023-03-14T01:14:00;13.30;99.90
22212;DHT22;11275;52.488;13.462;2023-03-14T01:16:26;13.20;99.90
22212;DHT22;11275;52.488;13.462;2023-03-14T01:18:52;13.10;99.90
22212;DHT22;11275;52.488;13.462;2023-03-14T01:21:19;13.10;99.90
22212;DHT22;11275;52.488;13.462;2023-03-14T01:23:45;13.10;99.90
22212;DHT22;11275;52.488;13.462;2023-03-14T01:26:12;13.10;99.90
22212;DHT22;11275;52.488;13.462;2023-03-14T01:28:38;13.10;99.90
22212;DHT22;11275;52.488;13.462;2023-03-14T01:31:07;13.10;99.90
22212;DHT22;11275;52.488;13.462;2023-03-14T01:33:33;13.10;99.90
22212;DHT22;11275;52.488;13.462;2023-03-14T01:35:59;13.10;99.90
22212;DHT22;11275;52.488;13.462;2023-03-14T01:38:30;13.20;99.90
22212;DHT22;11275;52.488;13.462;2023-03-14T01:40:56;13.20;99.90
22212;DHT22;11275;52.488;13.462;2023-03-14T01:43:22;13.20;99.90
22212;DHT22;11275;52.488;13.462;2023-03-14T01:51:05;13.40;99.90
22212;DHT22;11275;52.488;13.462;2023-03-14T01:53:31;13.30;99.90
22212;DHT22;11275;52.488;13.462;2023-03-14T01:55:57;13.40;99.90
22212;DHT22;11275;52.488;13.462;2023-03-14T01:58:23;13.40;99.90
22212;DHT22;11275;52.488;13.462;2023-03-14T02:00:50;13.30;99.90
22212;DHT22;11275;52.488;13.462;2023-03-14T02:03:16;13.30;99.90
22212;DHT22;11275;52.488;13.462;2023-03-14T02:05:42;13.30;99.90
22212;DHT22;11275;52.488;13.462;2023-03-14T02:08:17;13.20;99.90
22212;DHT22;11275;52.488;13.462;2023-03-14T02:10:47;13.20;99.90
22212;DHT22;11275;52.488;13.462;2023-03-14T02:13:14;13.20;99.90
22212;DHT22;11275;52.488;13.462;2023-03-14T02:15:39;13.10;99.90
22212;DHT22;11275;52.488;13.462;2023-03-14T02:18:05;13.10;99.90
22212;DHT22;11275;52.488;13.462;2023-03-14T02:23:09;13.00;99.90
22212;DHT22;11275;52.488;13.462;2023-03-14T02:28:00;13.10;99.90
22212;DHT22;11275;52.488;13.462;2023-03-14T02:30:27;13.10;99.90
22212;DHT22;11275;52.488;13.462;2023-03-14T02:32:55;13.10;99.90
22212;DHT22;11275;52.488;13.462;2023-03-14T02:35:23;13.10;99.90
22212;DHT22;11275;52.488;13.462;2023-03-14T02:40:33;13.20;99.90
22212;DHT22;11275;52.488;13.462;2023-03-14T02:42:59;13.20;99.90
22212;DHT22;11275;52.488;13.462;2023-03-14T02:47:54;13.20;99.90
22212;DHT22;11275;52.488;13.462;2023-03-14T02:50:20;13.20;99.90
22212;DHT22;11275;52.488;13.462;2023-03-14T02:52:47;13.20;99.90
22212;DHT22;11275;52.488;13.462;2023-03-14T02:55:13;13.20;99.90
22212;DHT22;11275;52.488;13.462;2023-03-14T02:57:38;13.20;99.90
22212;DHT22;11275;52.488;13.462;2023-03-14T03:00:04;13.10;99.90
22212;DHT22;11275;52.488;13.462;2023-03-14T03:02:30;13.10;99.90
22212;DHT22;11275;52.488;13.462;2023-03-14T03:04:55;13.10;99.90
22212;DHT22;11275;52.488;13.462;2023-03-14T03:07:21;13.00;99.90
22212;DHT22;11275;52.488;13.462;2023-03-14T03:09:47;12.90;99.90
22212;DHT22;11275;52.488;13.462;2023-03-14T03:12:12;12.90;99.90
22212;DHT22;11275;52.488;13.462;2023-03-14T03:14:38;12.80;99.90
22212;DHT22;11275;52.488;13.462;2023-03-14T03:17:04;12.70;99.90
22212;DHT22;11275;52.488;13.462;2023-03-14T03:19:30;12.70;99.90
22212;DHT22;11275;52.488;13.462;2023-03-14T03:21:55;12.70;99.90
22212;DHT22;11275;52.488;13.462;2023-03-14T03:24:21;12.70;99.90
22212;DHT22;11275;52.488;13.462;2023-03-14T03:26:46;12.70;99.90
22212;DHT22;11275;52.488;13.462;2023-03-14T03:29:12;12.70;99.90
22212;DHT22;11275;52.488;13.462;2023-03-14T03:31:38;12.70;99.90
22212;DHT22;11275;52.488;13.462;2023-03-14T03:34:03;12.70;99.90
22212;DHT22;11275;52.488;13.462;2023-03-14T03:36:29;12.70;99.90
22212;DHT22;11275;52.488;13.462;2023-03-14T03:38:54;12.80;99.90
22212;DHT22;11275;52.488;13.462;2023-03-14T03:41:20;12.70;99.90
22212;DHT22;11275;52.488;13.462;2023-03-14T03:43:45;12.70;99.90
22212;DHT22;11275;52.488;13.462;2023-03-14T03:46:11;12.60;99.90
22212;DHT22;11275;52.488;13.462;2023-03-14T03:48:36;12.60;99.90
22212;DHT22;11275;52.488;13.462;2023-03-14T03:51:02;12.70;99.90
22212;DHT22;11275;52.488;13.462;2023-03-14T03:53:28;12.70;99.90
22212;DHT22;11275;52.488;13.462;2023-03-14T03:55:53;12.70;99.90
22212;DHT22;11275;52.488;13.462;2023-03-14T03:58:19;12.70;99.90
22212;DHT22;11275;52.488;13.462;2023-03-14T04:00:44;12.70;99.90
22212;DHT22;11275;52.488;13.462;2023-03-14T04:03:10;12.60;99.90
22212;DHT22;11275;52.488;13.462;2023-03-14T04:05:35;12.60;99.90
22212;DHT22;11275;52.488;13.462;2023-03-14T04:08:01;12.70;99.90
22212;DHT22;11275;52.488;13.462;2023-03-14T04:10:27;12.70;99.90
22212;DHT22;11275;52.488;13.462;2023-03-14T04:12:52;12.60;99.90
22212;DHT22;11275;52.488;13.462;2023-03-14T04:15:18;12.80;99.90
22212;DHT22;11275;52.488;13.462;2023-03-14T04:17:43;12.80;99.90
22212;DHT22;11275;52.488;13.462;2023-03-14T04:20:09;12.80;99.90
22212;DHT22;11275;52.488;13.462;2023-03-14T04:22:36;12.80;99.90
22212;DHT22;11275;52.488;13.462;2023-03-14T04:25:02;12.80;99.90
22212;DHT22;11275;52.488;13.462;2023-03-14T04:27:28;12.70;99.90
22212;DHT22;11275;52.488;13.462;2023-03-14T04:29:54;12.70;99.90
22212;DHT22;11275;52.488;13.462;2023-03-14T04:32:20;12.70;99.90
22212;DHT22;11275;52.488;13.462;2023-03-14T04:34:45;12.70;99.90
22212;DHT22;11275;52.488;13.462;2023-03-14T04:37:11;12.70;99.90
22212;DHT22;11275;52.488;13.462;2023-03-14T04:39:36;12.70;99.90
22212;DHT22;11275;52.488;13.462;2023-03-14T04:42:02;12.70;99.90
22212;DHT22;11275;52.488;13.462;2023-03-14T04:44:27;12.70;99.90
22212;DHT22;11275;52.488;13.462;2023-03-14T04:46:53;12.70;99.90
22212;DHT22;11275;52.488;13.462;2023-03-14T04:49:18;12.70;99.90
22212;DHT22;11275;52.488;13.462;2023-03-14T04:51:44;12.60;99.90
22212;DHT22;11275;52.488;13.462;2023-03-14T04:54:09;12.60;99.90
22212;DHT22;11275;52.488;13.462;2023-03-14T04:56:35;12.60;99.90
22212;DHT22;11275;52.488;13.462;2023-03-14T04:59:01;12.60;99.90
22212;DHT22;11275;52.488;13.462;2023-03-14T05:01:27;12.60;99.90
22212;DHT22;11275;52.488;13.462;2023-03-14T05:03:52;12.60;99.90
22212;DHT22;11275;52.488;13.462;2023-03-14T05:06:18;12.50;99.90
22212;DHT22;11275;52.488;13.462;2023-03-14T05:08:43;12.60;99.90
22212;DHT22;11275;52.488;13.462;2023-03-14T05:11:10;12.60;99.90
22212;DHT22;11275;52.488;13.462;2023-03-14T05:13:35;12.70;99.90
22212;DHT22;11275;52.488;13.462;2023-03-14T05:16:05;12.70;99.90
22212;DHT22;11275;52.488;13.462;2023-03-14T05:18:31;12.60;99.90
22212;DHT22;11275;52.488;13.462;2023-03-14T05:20:56;12.70;99.90
22212;DHT22;11275;52.488;13.462;2023-03-14T05:23:22;12.70;99.90
22212;DHT22;11275;52.488;13.462;2023-03-14T05:25:47;12.80;99.90
22212;DHT22;11275;52.488;13.462;2023-03-14T05:28:13;12.70;99.90
22212;DHT22;11275;52.488;13.462;2023-03-14T05:30:38;12.70;99.90
22212;DHT22;11275;52.488;13.462;2023-03-14T05:33:04;12.70;99.90
22212;DHT22;11275;52.488;13.462;2023-03-14T05:35:29;12.60;99.90
22212;DHT22;11275;52.488;13.462;2023-03-14T05:37:55;12.60;99.90
22212;DHT22;11275;52.488;13.462;2023-03-14T05:40:20;12.70;99.90
22212;DHT22;11275;52.488;13.462;2023-03-14T05:42:46;12.70;99.90
22212;DHT22;11275;52.488;13.462;2023-03-14T05:45:11;12.80;99.90
22212;DHT22;11275;52.488;13.462;2023-03-14T05:47:37;12.70;99.90
22212;DHT22;11275;52.488;13.462;2023-03-14T05:50:02;12.70;99.90
22212;DHT22;11275;52.488;13.462;2023-03-14T05:52:28;12.70;99.90
22212;DHT22;11275;52.488;13.462;2023-03-14T05:54:53;12.70;99.90
22212;DHT22;11275;52.488;13.462;2023-03-14T05:57:19;12.70;99.90
22212;DHT22;11275;52.488;13.462;2023-03-14T05:59:44;12.80;99.90
22212;DHT22;11275;52.488;13.462;2023-03-14T06:02:10;12.90;99.90
22212;DHT22;11275;52.488;13.462;2023-03-14T06:04:36;12.80;99.90
22212;DHT22;11275;52.488;13.462;2023-03-14T06:07:01;12.80;99.90
22212;DHT22;11275;52.488;13.462;2023-03-14T06:09:27;12.90;99.90
22212;DHT22;11275;52.488;13.462;2023-03-14T06:11:52;12.90;99.90
22212;DHT22;11275;52.488;13.462;2023-03-14T06:14:18;12.80;99.90
22212;DHT22;11275;52.488;13.462;2023-03-14T06:16:43;12.70;99.90
22212;DHT22;11275;52.488;13.462;2023-03-14T06:19:09;12.80;99.90
22212;DHT22;11275;52.488;13.462;2023-03-14T06:21:35;12.80;99.90
22212;DHT22;11275;52.488;13.462;2023-03-14T06:24:01;12.80;99.90
22212;DHT22;11275;52.488;13.462;2023-03-14T06:26:26;12.80;99.90
22212;DHT22;11275;52.488;13.462;2023-03-14T06:28:52;12.70;99.90
22212;DHT22;11275;52.488;13.462;2023-03-14T06:31:18;12.80;99.90
22212;DHT22;11275;52.488;13.462;2023-03-14T06:33:44;12.80;99.90
22212;DHT22;11275;52.488;13.462;2023-03-14T06:36:09;12.70;99.90
22212;DHT22;11275;52.488;13.462;2023-03-14T06:38:35;12.80;99.90
22212;DHT22;11275;52.488;13.462;2023-03-14T06:41:07;12.80;99.90
22212;DHT22;11275;52.488;13.462;2023-03-14T06:43:32;12.80;99.90
22212;DHT22;11275;52.488;13.462;2023-03-14T06:45:58;12.90;99.90
22212;DHT22;11275;52.488;13.462;2023-03-14T06:48:23;12.90;99.90
22212;DHT22;11275;52.488;13.462;2023-03-14T06:50:49;13.00;99.90
22212;DHT22;11275;52.488;13.462;2023-03-14T06:53:14;13.00;99.90
22212;DHT22;11275;52.488;13.462;2023-03-14T06:55:40;13.00;99.90
22212;DHT22;11275;52.488;13.462;2023-03-14T06:58:06;13.10;99.90
22212;DHT22;11275;52.488;13.462;2023-03-14T07:00:33;13.10;99.90
22212;DHT22;11275;52.488;13.462;2023-03-14T07:02:59;13.00;99.90
22212;DHT22;11275;52.488;13.462;2023-03-14T07:05:24;13.00;99.90
22212;DHT22;11275;52.488;13.462;2023-03-14T07:07:50;13.10;99.90
22212;DHT22;11275;52.488;13.462;2023-03-14T07:10:15;13.20;99.90
22212;DHT22;11275;52.488;13.462;2023-03-14T07:12:41;13.30;99.90
22212;DHT22;11275;52.488;13.462;2023-03-14T07:15:07;13.30;99.90
22212;DHT22;11275;52.488;13.462;2023-03-14T07:17:32;13.30;99.90
22212;DHT22;11275;52.488;13.462;2023-03-14T07:19:58;13.30;99.90
22212;DHT22;11275;52.488;13.462;2023-03-14T07:22:24;13.40;99.90
22212;DHT22;11275;52.488;13.462;2023-03-14T07:24:50;13.20;99.90
22212;DHT22;11275;52.488;13.462;2023-03-14T07:27:15;13.20;99.90
22212;DHT22;11275;52.488;13.462;2023-03-14T07:29:41;13.10;99.90
22212;DHT22;11275;52.488;13.462;2023-03-14T07:32:06;13.10;99.90
22212;DHT22;11275;52.488;13.462;2023-03-14T07:34:33;13.20;99.90
22212;DHT22;11275;52.488;13.462;2023-03-14T07:36:58;13.30;99.90
22212;DHT22;11275;52.488;13.462;2023-03-14T07:39:24;13.20;99.90
22212;DHT22;11275;52.488;13.462;2023-03-14T07:41:50;13.10;99.90
22212;DHT22;11275;52.488;13.462;2023-03-14T07:44:15;13.20;99.90
22212;DHT22;11275;52.488;13.462;2023-03-14T07:46:41;13.10;99.90
22212;DHT22;11275;52.488;13.462;2023-03-14T07:49:07;13.10;99.90
22212;DHT22;11275;52.488;13.462;2023-03-14T07:51:32;13.10;99.90
22212;DHT22;11275;52.488;13.462;2023-03-14T07:53:58;13.00;99.90
22212;DHT22;11275;52.488;13.462;2023-03-14T07:56:23;13.00;99.90
22212;DHT22;11275;52.488;13.462;2023-03-14T07:58:49;13.00;99.90
22212;DHT22;11275;52.488;13.462;2023-03-14T08:01:14;13.00;99.90
22212;DHT22;11275;52.488;13.462;2023-03-14T08:03:40;12.90;99.90
22212;DHT22;11275;52.488;13.462;2023-03-14T08:06:05;12.90;99.90
22212;DHT22;11275;52.488;13.462;2023-03-14T08:08:31;13.00;99.90
22212;DHT22;11275;52.488;13.462;2023-03-14T08:11:02;13.10;99.90
22212;DHT22;11275;52.488;13.462;2023-03-14T08:13:27;13.30;99.90
22212;DHT22;11275;52.488;13.462;2023-03-14T08:15:53;13.40;99.90
22212;DHT22;11275;52.488;13.462;2023-03-14T08:18:18;13.50;99.90
22212;DHT22;11275;52.488;13.462;2023-03-14T08:20:44;13.60;99.90
22212;DHT22;11275;52.488;13.462;2023-03-14T08:23:09;13.70;99.90
22212;DHT22;11275;52.488;13.462;2023-03-14T08:25:35;13.80;99.90
22212;DHT22;11275;52.488;13.462;2023-03-14T08:28:00;13.90;99.90
22212;DHT22;11275;52.488;13.462;2023-03-14T08:30:26;13.90;99.90
22212;DHT22;11275;52.488;13.462;2023-03-14T08:32:51;13.90;99.90
22212;DHT22;11275;52.488;13.462;2023-03-14T08:35:17;13.90;99.90
22212;DHT22;11275;52.488;13.462;2023-03-14T08:37:43;14.00;99.90
22212;DHT22;11275;52.488;13.462;2023-03-14T08:40:09;14.10;99.90
22212;DHT22;11275;52.488;13.462;2023-03-14T08:42:38;14.20;99.90
22212;DHT22;11275;52.488;13.462;2023-03-14T08:45:04;14.20;99.90
22212;DHT22;11275;52.488;13.462;2023-03-14T08:47:30;14.20;99.90
22212;DHT22;11275;52.488;13.462;2023-03-14T08:49:55;14.30;99.90
22212;DHT22;11275;52.488;13.462;2023-03-14T08:52:21;14.30;99.90
22212;DHT22;11275;52.488;13.462;2023-03-14T08:54:47;14.30;99.90
22212;DHT22;11275;52.488;13.462;2023-03-14T08:57:12;14.20;99.90
22212;DHT22;11275;52.488;13.462;2023-03-14T08:59:38;14.20;99.90
22212;DHT22;11275;52.488;13.462;2023-03-14T09:02:04;14.30;99.90
22212;DHT22;11275;52.488;13.462;2023-03-14T09:04:30;14.30;99.90
22212;DHT22;11275;52.488;13.462;2023-03-14T09:06:56;14.30;99.90
22212;DHT22;11275;52.488;13.462;2023-03-14T09:09:23;14.30;99.90
22212;DHT22;11275;52.488;13.462;2023-03-14T09:11:49;14.30;99.90
22212;DHT22;11275;52.488;13.462;2023-03-14T09:14:14;14.30;99.90
22212;DHT22;11275;52.488;13.462;2023-03-14T09:16:40;14.50;99.90
22212;DHT22;11275;52.488;13.462;2023-03-14T09:19:05;14.50;99.90
22212;DHT22;11275;52.488;13.462;2023-03-14T09:21:31;14.70;99.90
22212;DHT22;11275;52.488;13.462;2023-03-14T09:23:56;14.80;99.90
22212;DHT22;11275;52.488;13.462;2023-03-14T09:26:22;14.80;99.90
22212;DHT22;11275;52.488;13.462;2023-03-14T09:28:47;14.70;99.90
22212;DHT22;11275;52.488;13.462;2023-03-14T09:31:14;14.60;99.90
22212;DHT22;11275;52.488;13.462;2023-03-14T09:33:39;14.50;99.90
22212;DHT22;11275;52.488;13.462;2023-03-14T09:36:05;14.50;99.90
22212;DHT22;11275;52.488;13.462;2023-03-14T09:38:31;14.50;99.90
22212;DHT22;11275;52.488;13.462;2023-03-14T09:40:58;14.40;99.90
22212;DHT22;11275;52.488;13.462;2023-03-14T09:43:25;14.50;99.90
22212;DHT22;11275;52.488;13.462;2023-03-14T09:45:52;14.50;99.90
22212;DHT22;11275;52.488;13.462;2023-03-14T09:48:21;14.70;99.90
22212;DHT22;11275;52.488;13.462;2023-03-14T09:50:51;14.90;99.90
22212;DHT22;11275;52.488;13.462;2023-03-14T09:53:18;15.00;99.90
22212;DHT22;11275;52.488;13.462;2023-03-14T09:55:48;15.10;99.90
22212;DHT22;11275;52.488;13.462;2023-03-14T09:58:16;15.00;99.90
22212;DHT22;11275;52.488;13.462;2023-03-14T10:00:43;15.00;99.90
22212;DHT22;11275;52.488;13.462;2023-03-14T10:05:38;14.90;99.90
22212;DHT22;11275;52.488;13.462;2023-03-14T10:08:03;15.00;99.90
22212;DHT22;11275;52.488;13.462;2023-03-14T10:10:30;14.90;99.90
22212;DHT22;11275;52.488;13.462;2023-03-14T10:12:57;14.90;99.90
22212;DHT22;11275;52.488;13.462;2023-03-14T10:15:27;14.90;99.90
22212;DHT22;11275;52.488;13.462;2023-03-14T10:17:54;14.90;99.90
22212;DHT22;11275;52.488;13.462;2023-03-14T10:22:52;15.10;99.90
22212;DHT22;11275;52.488;13.462;2023-03-14T10:25:27;15.00;99.90
22212;DHT22;11275;52.488;13.462;2023-03-14T10:27:52;15.00;99.90
22212;DHT22;11275;52.488;13.462;2023-03-14T10:30:27;15.10;99.90
22212;DHT22;11275;52.488;13.462;2023-03-14T10:32:53;15.00;99.90
22212;DHT22;11275;52.488;13.462;2023-03-14T10:35:20;15.00;99.90
22212;DHT22;11275;52.488;13.462;2023-03-14T10:37:53;15.00;99.90
22212;DHT22;11275;52.488;13.462;2023-03-14T10:40:24;15.00;99.90
22212;DHT22;11275;52.488;13.462;2023-03-14T10:42:50;14.90;99.90
22212;DHT22;11275;52.488;13.462;2023-03-14T10:51:30;15.00;99.90
22212;DHT22;11275;52.488;13.462;2023-03-14T10:53:39;15.00;99.90
22212;DHT22;11275;52.488;13.462;2023-03-14T10:56:06;15.10;99.90
22212;DHT22;11275;52.488;13.462;2023-03-14T10:58:33;15.10;99.90
22212;DHT22;11275;52.488;13.462;2023-03-14T11:01:12;15.10;99.90
22212;DHT22;11275;52.488;13.462;2023-03-14T11:03:48;15.10;99.90
22212;DHT22;11275;52.488;13.462;2023-03-14T11:06:17;15.00;99.90
22212;DHT22;11275;52.488;13.462;2023-03-14T11:08:48;15.10;99.90
22212;DHT22;11275;52.488;13.462;2023-03-14T11:13:53;15.20;99.90
22212;DHT22;11275;52.488;13.462;2023-03-14T11:21:22;15.30;99.90
22212;DHT22;11275;52.488;13.462;2023-03-14T11:28:47;15.40;99.90
22212;DHT22;11275;52.488;13.462;2023-03-14T11:31:29;15.40;99.90
22212;DHT22;11275;52.488;13.462;2023-03-14T11:34:16;15.30;99.90
22212;DHT22;11275;52.488;13.462;2023-03-14T11:36:51;15.30;99.90
22212;DHT22;11275;52.488;13.462;2023-03-14T11:39:18;15.30;99.90
22212;DHT22;11275;52.488;13.462;2023-03-14T11:41:45;15.40;99.90
22212;DHT22;11275;52.488;13.462;2023-03-14T11:44:15;15.40;99.90
22212;DHT22;11275;52.488;13.462;2023-03-14T11:46:43;15.30;99.90
22212;DHT22;11275;52.488;13.462;2023-03-14T11:49:21;15.30;99.90
22212;DHT22;11275;52.488;13.462;2023-03-14T11:51:50;15.40;99.90
22212;DHT22;11275;52.488;13.462;2023-03-14T11:59:18;15.60;99.90
22212;DHT22;11275;52.488;13.462;2023-03-14T12:01:49;15.50;99.90
22212;DHT22;11275;52.488;13.462;2023-03-14T12:04:22;15.60;99.90
22212;DHT22;11275;52.488;13.462;2023-03-14T12:06:49;15.60;99.90
22212;DHT22;11275;52.488;13.462;2023-03-14T12:09:15;15.70;99.90
22212;DHT22;11275;52.488;13.462;2023-03-14T12:11:54;15.70;99.90
22212;DHT22;11275;52.488;13.462;2023-03-14T12:14:23;15.80;99.90
22212;DHT22;11275;52.488;13.462;2023-03-14T12:16:53;15.80;99.90
22212;DHT22;11275;52.488;13.462;2023-03-14T12:22:48;15.80;99.90
22212;DHT22;11275;52.488;13.462;2023-03-14T12:24:44;15.80;99.90
22212;DHT22;11275;52.488;13.462;2023-03-14T12:27:12;16.00;99.90
22212;DHT22;11275;52.488;13.462;2023-03-14T12:29:57;16.00;99.90
22212;DHT22;11275;52.488;13.462;2023-03-14T12:32:23;15.90;99.90
22212;DHT22;11275;52.488;13.462;2023-03-14T12:34:49;15.90;99.90
22212;DHT22;11275;52.488;13.462;2023-03-14T12:37:35;15.80;99.90
22212;DHT22;11275;52.488;13.462;2023-03-14T12:40:17;15.80;99.90
22212;DHT22;11275;52.488;13.462;2023-03-14T12:42:57;15.60;99.90
22212;DHT22;11275;52.488;13.462;2023-03-14T12:50:42;15.50;99.90
22212;DHT22;11275;52.488;13.462;2023-03-14T12:55:49;15.70;99.90
22212;DHT22;11275;52.488;13.462;2023-03-14T13:00:51;15.70;99.90
22212;DHT22;11275;52.488;13.462;2023-03-14T13:03:20;15.70;99.90
22212;DHT22;11275;52.488;13.462;2023-03-14T13:06:00;15.60;99.90
22212;DHT22;11275;52.488;13.462;2023-03-14T13:10:58;15.40;99.90
22212;DHT22;11275;52.488;13.462;2023-03-14T13:13:25;15.50;99.90
22212;DHT22;11275;52.488;13.462;2023-03-14T13:15:59;15.40;99.90
22212;DHT22;11275;52.488;13.462;2023-03-14T13:23:42;14.80;99.90
22212;DHT22;11275;52.488;13.462;2023-03-14T13:26:18;14.50;99.90
22212;DHT22;11275;52.488;13.462;2023-03-14T13:28:44;14.40;99.90
22212;DHT22;11275;52.488;13.462;2023-03-14T13:31:12;14.40;99.90
22212;DHT22;11275;52.488;13.462;2023-03-14T13:33:43;14.30;99.90
22212;DHT22;11275;52.488;13.462;2023-03-14T13:36:09;14.40;99.90
22212;DHT22;11275;52.488;13.462;2023-03-14T13:38:35;14.50;99.90
22212;DHT22;11275;52.488;13.462;2023-03-14T13:41:03;14.60;99.90
22212;DHT22;11275;52.488;13.462;2023-03-14T13:46:01;14.60;99.90
22212;DHT22;11275;52.488;13.462;2023-03-14T13:48:28;14.70;99.90
22212;DHT22;11275;52.488;13.462;2023-03-14T13:51:03;14.60;99.90
22212;DHT22;11275;52.488;13.462;2023-03-14T13:53:30;14.70;99.90
22212;DHT22;11275;52.488;13.462;2023-03-14T13:55:55;14.70;99.90
22212;DHT22;11275;52.488;13.462;2023-03-14T13:58:28;14.80;99.90
22212;DHT22;11275;52.488;13.462;2023-03-14T14:03:26;14.80;99.90
22212;DHT22;11275;52.488;13.462;2023-03-14T14:05:53;14.80;99.90
22212;DHT22;11275;52.488;13.462;2023-03-14T14:08:19;14.80;99.90
22212;DHT22;11275;52.488;13.462;2023-03-14T14:10:45;14.90;99.90
22212;DHT22;11275;52.488;13.462;2023-03-14T14:13:13;14.90;99.90
22212;DHT22;11275;52.488;13.462;2023-03-14T14:15:44;14.90;99.90
22212;DHT22;11275;52.488;13.462;2023-03-14T14:18:11;14.80;99.90
22212;DHT22;11275;52.488;13.462;2023-03-14T14:20:40;14.80;99.90
22212;DHT22;11275;52.488;13.462;2023-03-14T14:23:07;14.90;99.90
22212;DHT22;11275;52.488;13.462;2023-03-14T14:25:34;15.00;99.90
22212;DHT22;11275;52.488;13.462;2023-03-14T14:28:14;15.00;99.90
22212;DHT22;11275;52.488;13.462;2023-03-14T14:30:40;15.00;99.90
22212;DHT22;11275;52.488;13.462;2023-03-14T14:33:19;15.00;99.90
22212;DHT22;11275;52.488;13.462;2023-03-14T14:36:19;15.00;99.90
22212;DHT22;11275;52.488;13.462;2023-03-14T14:38:36;15.00;99.90
22212;DHT22;11275;52.488;13.462;2023-03-14T14:41:02;15.10;99.90
22212;DHT22;11275;52.488;13.462;2023-03-14T14:43:35;15.20;99.90
22212;DHT22;11275;52.488;13.462;2023-03-14T14:46:05;15.40;99.90
22212;DHT22;11275;52.488;13.462;2023-03-14T14:48:31;15.40;99.90
22212;DHT22;11275;52.488;13.462;2023-03-14T14:51:02;15.40;99.90
22212;DHT22;11275;52.488;13.462;2023-03-14T14:53:29;15.50;99.90
22212;DHT22;11275;52.488;13.462;2023-03-14T14:55:56;15.60;99.90
22212;DHT22;11275;52.488;13.462;2023-03-14T14:58:30;15.60;99.90
22212;DHT22;11275;52.488;13.462;2023-03-14T15:03:31;15.60;99.90
22212;DHT22;11275;52.488;13.462;2023-03-14T15:05:59;15.60;99.90
22212;DHT22;11275;52.488;13.462;2023-03-14T15:08:25;15.50;99.90
22212;DHT22;11275;52.488;13.462;2023-03-14T15:10:51;15.50;99.90
22212;DHT22;11275;52.488;13.462;2023-03-14T15:13:19;15.40;99.90
22212;DHT22;11275;52.488;13.462;2023-03-14T15:15:51;15.30;99.90
22212;DHT22;11275;52.488;13.462;2023-03-14T15:18:23;15.30;99.90
22212;DHT22;11275;52.488;13.462;2023-03-14T15:20:49;15.20;99.90
22212;DHT22;11275;52.488;13.462;2023-03-14T15:23:16;15.10;99.90
22212;DHT22;11275;52.488;13.462;2023-03-14T15:25:42;15.10;99.90
22212;DHT22;11275;52.488;13.462;2023-03-14T15:28:20;14.50;99.90
22212;DHT22;11275;52.488;13.462;2023-03-14T15:30:47;14.00;99.90
22212;DHT22;11275;52.488;13.462;2023-03-14T15:33:13;13.00;99.90
22212;DHT22;11275;52.488;13.462;2023-03-14T15:35:38;12.40;99.90
22212;DHT22;11275;52.488;13.462;2023-03-14T15:38:04;11.90;99.90
22212;DHT22;11275;52.488;13.462;2023-03-14T15:40:30;11.50;99.90
22212;DHT22;11275;52.488;13.462;2023-03-14T15:42:56;11.40;99.90
22212;DHT22;11275;52.488;13.462;2023-03-14T15:45:21;11.10;99.90
22212;DHT22;11275;52.488;13.462;2023-03-14T15:47:47;11.40;99.90
22212;DHT22;11275;52.488;13.462;2023-03-14T15:50:12;11.10;99.90
22212;DHT22;11275;52.488;13.462;2023-03-14T15:52:38;11.20;99.90
22212;DHT22;11275;52.488;13.462;2023-03-14T15:55:03;10.90;99.90
22212;DHT22;11275;52.488;13.462;2023-03-14T15:57:29;10.50;99.90
22212;DHT22;11275;52.488;13.462;2023-03-14T15:59:54;9.60;99.90
22212;DHT22;11275;52.488;13.462;2023-03-14T16:02:20;7.70;99.90
22212;DHT22;11275;52.488;13.462;2023-03-14T16:04:45;6.70;99.90
22212;DHT22;11275;52.488;13.462;2023-03-14T16:07:11;6.40;99.90
22212;DHT22;11275;52.488;13.462;2023-03-14T16:09:36;5.70;99.90
22212;DHT22;11275;52.488;13.462;2023-03-14T16:12:02;5.80;99.90
22212;DHT22;11275;52.488;13.462;2023-03-14T16:14:30;6.10;99.90
22212;DHT22;11275;52.488;13.462;2023-03-14T16:16:55;6.20;99.90
22212;DHT22;11275;52.488;13.462;2023-03-14T16:19:24;6.00;99.90
22212;DHT22;11275;52.488;13.462;2023-03-14T16:21:51;6.10;99.90
22212;DHT22;11275;52.488;13.462;2023-03-14T16:24:17;5.80;99.90
22212;DHT22;11275;52.488;13.462;2023-03-14T16:26:42;5.70;99.90
22212;DHT22;11275;52.488;13.462;2023-03-14T16:29:09;6.10;99.90